Guarus, Brazil
Current Conditions -  °F | °C
As of 11:00 AM on Sunday 23 Nov 2014 (Local Time) from SBCP Reporting Station
Clear Clear  
Wind Chill: 90°   Ceiling: Unl
Heat Index: 96°   Visibility: 6mi
Dew Point: 72°   Wind: 9mph
Humidity: 55%   Direction: 40°NE
Pressure: 29.85"   Gusts: NA
Location:  21.72°S, 41.33°W
Report Text: SBCP 231300Z 04008KT CAVOK 32/22 Q1011
Loading
Personal Weather Stations






























Interactive Weather Map New forecast layout! Learn more

10-Day Weather Forecast

Advertisements
Track Severe Weather on mobile